Time;durP1;ratioP1;P1;durP2;ratioP2;P2;SDS_P1;SDS_P2;PMS_P1;PMS_P2;Temp;Humidity;BMP_temperature;BMP_pressure;BME280_temperature;BME280_humidity;BME280_pressure;Samples;Min_cycle;Max_cycle;Signal;HPM_P1;HPM_P2
2023/07/05 00:01:14;;;;;;;10.27;3.72;;;16.00;99.90;;;;;;5034096;28;20491;-73
2023/07/05 00:03:40;;;;;;;10.20;3.90;;;16.00;99.90;;;;;;5033802;28;20041;-73
2023/07/05 00:06:06;;;;;;;11.48;3.95;;;16.00;99.90;;;;;;5033772;28;20049;-73
2023/07/05 00:08:33;;;;;;;8.70;3.90;;;15.90;99.90;;;;;;5033952;28;20049;-73
2023/07/05 00:11:06;;;;;;;8.35;3.80;;;16.00;99.90;;;;;;5033784;28;20052;-73
2023/07/05 00:13:32;;;;;;;9.65;4.30;;;16.00;99.90;;;;;;5033646;28;20045;-73
2023/07/05 00:15:59;;;;;;;11.45;3.65;;;16.00;99.90;;;;;;5033609;28;20045;-73
2023/07/05 00:18:25;;;;;;;10.38;4.03;;;16.00;99.90;;;;;;5033486;28;20048;-73
2023/07/05 00:20:51;;;;;;;8.50;4.68;;;15.90;99.90;;;;;;5033464;28;20037;-73
2023/07/05 00:23:16;;;;;;;10.10;4.22;;;15.90;99.90;;;;;;5033689;28;20072;-73
2023/07/05 00:25:42;;;;;;;7.00;3.97;;;15.90;99.90;;;;;;5015743;28;20091;-73
2023/07/05 00:28:07;;;;;;;9.65;4.10;;;15.80;99.90;;;;;;5033255;28;20041;-73
2023/07/05 00:30:33;;;;;;;11.13;4.07;;;15.80;99.90;;;;;;5033205;28;20045;-74
2023/07/05 00:32:59;;;;;;;10.00;3.83;;;15.80;99.90;;;;;;5033517;28;20053;-73
2023/07/05 00:35:24;;;;;;;12.48;4.57;;;15.80;99.90;;;;;;5033228;28;20406;-73
2023/07/05 00:37:50;;;;;;;9.02;4.03;;;15.80;99.90;;;;;;5033341;28;20045;-73
2023/07/05 00:40:15;;;;;;;10.77;4.57;;;15.80;99.90;;;;;;5016596;28;20045;-73
2023/07/05 00:42:42;;;;;;;10.20;4.40;;;15.80;99.90;;;;;;5033084;28;20041;-73
2023/07/05 00:45:11;;;;;;;12.02;4.65;;;15.80;99.90;;;;;;5033048;28;20568;-73
2023/07/05 00:47:39;;;;;;;11.95;4.80;;;15.80;99.90;;;;;;5033149;28;20037;-73
2023/07/05 00:50:16;;;;;;;12.35;4.47;;;15.80;99.90;;;;;;5032897;28;20120;-73
2023/07/05 00:52:42;;;;;;;12.90;4.78;;;15.80;99.90;;;;;;5033208;28;20056;-73
2023/07/05 00:55:08;;;;;;;9.43;4.25;;;15.80;99.90;;;;;;5033030;28;20045;-73
2023/07/05 00:57:36;;;;;;;11.07;4.50;;;15.70;99.90;;;;;;5032841;28;20041;-73
2023/07/05 01:00:08;;;;;;;9.13;4.00;;;15.80;99.90;;;;;;5032713;28;20410;-73
2023/07/05 01:02:39;;;;;;;10.52;4.43;;;15.80;99.90;;;;;;5032648;28;20052;-73
2023/07/05 01:05:05;;;;;;;11.80;4.40;;;15.80;99.90;;;;;;5032655;28;20038;-72
2023/07/05 01:07:31;;;;;;;10.80;4.53;;;15.80;99.90;;;;;;5032507;28;20056;-73
2023/07/05 01:09:57;;;;;;;13.07;4.50;;;15.80;99.90;;;;;;5032836;28;20037;-73
2023/07/05 01:12:25;;;;;;;12.90;5.38;;;15.80;99.90;;;;;;5032773;28;20507;-73
2023/07/05 01:15:01;;;;;;;10.05;4.72;;;15.90;99.90;;;;;;5032509;28;20084;-73
2023/07/05 01:17:54;;;;;;;11.45;4.78;;;15.80;99.90;;;;;;5032610;28;20246;-73
2023/07/05 01:20:26;;;;;;;13.60;4.90;;;15.80;99.90;;;;;;5032427;28;20073;-73
2023/07/05 01:23:04;;;;;;;10.05;4.90;;;15.80;99.90;;;;;;5032570;28;20127;-73
2023/07/05 01:26:02;;;;;;;15.93;5.72;;;15.70;99.90;;;;;;5032314;28;20120;-74
2023/07/05 01:28:37;;;;;;;16.55;5.18;;;15.80;99.90;;;;;;5032214;28;20041;-74
2023/07/05 01:31:19;;;;;;;14.10;5.93;;;15.80;99.90;;;;;;5032086;28;20445;-74
2023/07/05 01:34:02;;;;;;;11.07;4.85;;;15.70;99.90;;;;;;5015761;28;20045;-74
2023/07/05 01:36:30;;;;;;;12.07;5.07;;;15.70;99.90;;;;;;5032000;28;20040;-73
2023/07/05 01:38:55;;;;;;;13.63;6.53;;;15.60;99.90;;;;;;5015624;28;20041;-73
2023/07/05 01:41:22;;;;;;;13.70;5.97;;;15.70;99.90;;;;;;5032088;28;20053;-73
2023/07/05 01:43:49;;;;;;;15.75;6.88;;;15.70;99.90;;;;;;5032021;28;20047;-73
2023/07/05 01:46:21;;;;;;;15.40;6.22;;;15.60;99.90;;;;;;5032226;28;20565;-73
2023/07/05 01:49:08;;;;;;;15.25;6.07;;;15.60;99.90;;;;;;5031973;28;20049;-73
2023/07/05 01:51:57;;;;;;;13.45;6.00;;;15.60;99.90;;;;;;5031984;28;20045;-73
2023/07/05 01:54:32;;;;;;;15.07;6.28;;;15.60;99.90;;;;;;5032724;28;20037;-73
2023/07/05 01:57:08;;;;;;;13.20;6.65;;;15.50;99.90;;;;;;5031948;28;20445;-73
2023/07/05 01:59:46;;;;;;;9.18;5.60;;;15.50;99.90;;;;;;5032177;28;20037;-73
2023/07/05 02:02:14;;;;;;;11.18;6.10;;;15.50;99.90;;;;;;5031806;28;20506;-73
2023/07/05 02:04:41;;;;;;;10.52;6.05;;;15.40;99.90;;;;;;5031985;28;20045;-73
2023/07/05 02:07:07;;;;;;;12.68;6.05;;;15.40;99.90;;;;;;5031632;28;20480;-73
2023/07/05 02:09:37;;;;;;;15.10;6.40;;;15.40;99.90;;;;;;5031741;28;20156;-73
2023/07/05 02:12:04;;;;;;;12.10;6.07;;;15.40;99.90;;;;;;5031607;28;20449;-73
2023/07/05 02:14:30;;;;;;;13.40;6.50;;;15.40;99.90;;;;;;5015468;28;20049;-73
2023/07/05 02:16:56;;;;;;;10.00;6.32;;;15.40;99.90;;;;;;5031585;28;20049;-73
2023/07/05 02:19:21;;;;;;;13.48;6.82;;;15.30;99.90;;;;;;5031671;28;20045;-73
2023/07/05 02:21:47;;;;;;;11.20;6.60;;;15.40;99.90;;;;;;5031587;28;20128;-73
2023/07/05 02:24:12;;;;;;;15.90;7.43;;;15.40;99.90;;;;;;5031570;28;20044;-73
2023/07/05 02:26:38;;;;;;;12.02;7.03;;;15.40;99.90;;;;;;5031502;28;20052;-73
2023/07/05 02:29:03;;;;;;;14.40;7.72;;;15.40;99.90;;;;;;5031532;28;20052;-73
2023/07/05 02:31:29;;;;;;;11.32;6.80;;;15.30;99.90;;;;;;5031590;28;20048;-73
2023/07/05 02:33:55;;;;;;;12.48;7.85;;;15.30;99.90;;;;;;5031792;28;20069;-73
2023/07/05 02:36:21;;;;;;;15.45;7.30;;;15.30;99.90;;;;;;5031533;28;20548;-73
2023/07/05 02:38:47;;;;;;;13.70;7.90;;;15.30;99.90;;;;;;5031451;28;20152;-73
2023/07/05 02:41:12;;;;;;;15.80;8.10;;;15.30;99.90;;;;;;5031440;28;20052;-73
2023/07/05 02:43:38;;;;;;;14.32;8.27;;;15.30;99.90;;;;;;5031468;28;20083;-73
2023/07/05 02:46:05;;;;;;;14.90;8.45;;;15.30;99.90;;;;;;5031352;28;20050;-73
2023/07/05 02:48:31;;;;;;;18.48;8.82;;;15.30;99.90;;;;;;5032490;28;20050;-73
2023/07/05 02:50:57;;;;;;;14.30;8.55;;;15.20;99.90;;;;;;5035106;28;20413;-73
2023/07/05 02:53:22;;;;;;;22.20;9.75;;;15.30;99.90;;;;;;5035177;28;20036;-73
2023/07/05 02:55:49;;;;;;;20.17;8.95;;;15.40;99.90;;;;;;5035263;28;20037;-74
2023/07/05 02:58:15;;;;;;;16.65;8.93;;;15.20;99.90;;;;;;5035261;28;20029;-74
2023/07/05 03:00:42;;;;;;;13.23;9.55;;;15.20;99.90;;;;;;5035070;28;20112;-74
2023/07/05 03:03:08;;;;;;;15.70;9.82;;;15.20;99.90;;;;;;5035279;28;20033;-73
2023/07/05 03:05:33;;;;;;;15.88;9.80;;;15.20;99.90;;;;;;5034989;28;20508;-73
2023/07/05 03:07:59;;;;;;;16.73;9.23;;;15.20;99.90;;;;;;5035405;28;20041;-73
2023/07/05 03:10:25;;;;;;;14.95;9.85;;;15.20;99.90;;;;;;5034801;28;20045;-73
2023/07/05 03:12:50;;;;;;;17.88;11.02;;;15.30;99.90;;;;;;5034801;28;20077;-73
2023/07/05 03:15:16;;;;;;;16.10;9.85;;;15.20;99.90;;;;;;5035063;28;20076;-73
2023/07/05 03:17:42;;;;;;;13.50;9.30;;;15.20;99.90;;;;;;5034902;28;20494;-73
2023/07/05 03:20:08;;;;;;;16.13;9.45;;;15.30;99.90;;;;;;5034683;28;20052;-72
2023/07/05 03:22:34;;;;;;;14.57;9.40;;;15.20;99.90;;;;;;5034631;28;20041;-73
2023/07/05 03:24:59;;;;;;;15.02;10.18;;;15.20;99.90;;;;;;5034628;28;20041;-73
2023/07/05 03:27:28;;;;;;;13.25;9.68;;;15.20;99.90;;;;;;5034480;28;20128;-73
2023/07/05 03:29:55;;;;;;;16.95;10.45;;;15.30;99.90;;;;;;5034422;28;20055;-73
2023/07/05 03:32:21;;;;;;;14.88;9.93;;;15.30;99.90;;;;;;5034320;28;20045;-73
2023/07/05 03:34:47;;;;;;;16.88;9.80;;;15.30;99.90;;;;;;5034640;28;20048;-73
2023/07/05 03:37:12;;;;;;;15.30;8.75;;;15.40;99.90;;;;;;5034258;28;20498;-73
2023/07/05 03:39:38;;;;;;;15.65;9.90;;;15.40;99.90;;;;;;5034281;28;20124;-73
2023/07/05 03:42:04;;;;;;;16.15;10.90;;;15.30;99.90;;;;;;5034225;28;20033;-73
2023/07/05 03:44:29;;;;;;;15.68;10.75;;;15.40;99.90;;;;;;5034163;28;20092;-73
2023/07/05 03:46:55;;;;;;;11.45;9.50;;;15.40;99.90;;;;;;5034095;28;20077;-73
2023/07/05 03:49:20;;;;;;;13.30;9.70;;;15.30;99.90;;;;;;5034130;28;20037;-73
2023/07/05 03:51:46;;;;;;;11.70;9.40;;;15.30;99.90;;;;;;5034260;28;20038;-73
2023/07/05 03:54:12;;;;;;;14.18;9.90;;;15.40;99.90;;;;;;5017455;28;20486;-73
2023/07/05 03:56:37;;;;;;;11.27;9.07;;;15.50;99.90;;;;;;5033777;28;20073;-73
2023/07/05 03:59:03;;;;;;;16.73;10.25;;;15.50;99.90;;;;;;5033665;28;20099;-73
2023/07/05 04:01:30;;;;;;;15.90;9.68;;;15.50;99.90;;;;;;5033880;28;20124;-73
2023/07/05 04:03:58;;;;;;;13.10;9.68;;;15.50;99.90;;;;;;5033805;28;20033;-73
2023/07/05 04:06:26;;;;;;;12.85;9.55;;;15.50;99.90;;;;;;5033727;28;20048;-73
2023/07/05 04:08:52;;;;;;;14.02;8.75;;;15.60;99.90;;;;;;5033814;28;20049;-73
2023/07/05 04:11:18;;;;;;;15.00;9.00;;;15.70;99.90;;;;;;5033734;28;20048;-73
2023/07/05 04:13:45;;;;;;;15.27;8.73;;;15.60;99.90;;;;;;5033604;28;20030;-73
2023/07/05 04:16:15;;;;;;;13.15;7.97;;;15.70;99.90;;;;;;5033761;28;20041;-73
2023/07/05 04:18:42;;;;;;;13.60;8.50;;;15.70;99.90;;;;;;5033711;28;20108;-73
2023/07/05 04:21:08;;;;;;;11.68;8.20;;;15.70;99.90;;;;;;5033491;28;20048;-73
2023/07/05 04:23:34;;;;;;;11.50;8.18;;;15.70;99.90;;;;;;5033489;28;20049;-73
2023/07/05 04:26:02;;;;;;;13.20;6.90;;;15.70;99.90;;;;;;5033688;28;20383;-73
2023/07/05 04:28:29;;;;;;;9.52;6.85;;;15.70;99.90;;;;;;5017025;28;20556;-73
2023/07/05 04:30:54;;;;;;;12.10;6.75;;;15.70;99.90;;;;;;5033502;28;20042;-73
2023/07/05 04:33:20;;;;;;;8.75;6.15;;;15.60;99.90;;;;;;5033239;28;20466;-73
2023/07/05 04:35:48;;;;;;;10.90;6.70;;;15.70;99.90;;;;;;5033242;28;20534;-73
2023/07/05 04:38:13;;;;;;;9.70;5.93;;;15.70;99.90;;;;;;5016612;28;20029;-73
2023/07/05 04:40:39;;;;;;;7.03;4.13;;;15.60;99.90;;;;;;5033363;28;20091;-73
2023/07/05 04:43:05;;;;;;;5.95;3.75;;;15.50;99.90;;;;;;5033113;28;20501;-73
2023/07/05 04:45:31;;;;;;;6.65;3.83;;;15.50;99.90;;;;;;5033326;28;20048;-73
2023/07/05 04:47:56;;;;;;;6.13;3.88;;;15.50;99.90;;;;;;5032948;28;20410;-73
2023/07/05 04:50:22;;;;;;;6.05;3.55;;;15.40;99.90;;;;;;5033145;28;20080;-73
2023/07/05 04:52:47;;;;;;;6.32;3.78;;;15.40;99.90;;;;;;5032880;28;20490;-74
2023/07/05 04:55:13;;;;;;;6.50;3.80;;;15.30;99.90;;;;;;5033087;28;20117;-73
2023/07/05 04:57:38;;;;;;;7.13;3.60;;;15.20;99.90;;;;;;5016227;28;20044;-73
2023/07/05 05:00:05;;;;;;;8.15;4.00;;;15.10;99.90;;;;;;5032782;28;20064;-73
2023/07/05 05:02:31;;;;;;;5.38;3.70;;;15.10;99.90;;;;;;5032700;28;20056;-73
2023/07/05 05:04:56;;;;;;;5.43;3.67;;;15.00;99.90;;;;;;5032652;28;20033;-73
2023/07/05 05:07:22;;;;;;;5.75;3.38;;;14.90;99.90;;;;;;5032556;28;20041;-73
2023/07/05 05:09:48;;;;;;;5.70;4.20;;;14.90;99.90;;;;;;5032808;28;20131;-73
2023/07/05 05:12:13;;;;;;;5.68;3.78;;;14.80;99.90;;;;;;5031853;28;20067;-73
2023/07/05 05:14:39;;;;;;;5.47;3.75;;;14.80;99.90;;;;;;5016131;28;20033;-73
2023/07/05 05:17:06;;;;;;;5.10;3.40;;;14.80;99.90;;;;;;5032497;28;20037;-73
2023/07/05 05:19:31;;;;;;;7.10;3.78;;;14.70;99.90;;;;;;5032687;28;20043;-73
2023/07/05 05:21:57;;;;;;;8.65;4.20;;;14.70;99.90;;;;;;5016175;28;20041;-73
2023/07/05 05:24:23;;;;;;;5.95;3.92;;;14.70;99.90;;;;;;5016171;28;20505;-73
2023/07/05 05:26:48;;;;;;;5.90;3.85;;;14.80;99.90;;;;;;5032237;28;20482;-73
2023/07/05 05:29:14;;;;;;;5.63;3.45;;;14.80;99.90;;;;;;5032261;28;20073;-73
2023/07/05 05:31:40;;;;;;;7.03;4.03;;;14.80;99.90;;;;;;5032113;28;20044;-73
2023/07/05 05:34:06;;;;;;;7.60;4.00;;;14.80;99.90;;;;;;5032181;28;20037;-73
2023/07/05 05:36:31;;;;;;;5.60;3.63;;;14.80;99.90;;;;;;5032145;28;20087;-73
2023/07/05 05:38:57;;;;;;;6.57;4.18;;;14.90;99.90;;;;;;5032125;28;20128;-74
2023/07/05 05:41:22;;;;;;;7.63;3.80;;;14.90;99.90;;;;;;5015712;28;20049;-73
2023/07/05 05:43:50;;;;;;;6.05;3.63;;;14.90;99.90;;;;;;5032370;28;20072;-73
2023/07/05 05:46:16;;;;;;;5.47;3.65;;;14.90;99.90;;;;;;5032027;28;20494;-72
2023/07/05 05:48:42;;;;;;;6.50;3.65;;;15.00;99.90;;;;;;5031926;28;20049;-73
2023/07/05 05:51:08;;;;;;;6.28;3.30;;;15.00;99.90;;;;;;5032125;28;20048;-72
2023/07/05 05:53:33;;;;;;;5.70;4.10;;;14.90;99.90;;;;;;5031953;28;20494;-72
2023/07/05 05:55:59;;;;;;;4.60;3.20;;;14.90;99.90;;;;;;5031808;28;20044;-74
2023/07/05 05:58:25;;;;;;;6.22;3.45;;;14.90;99.90;;;;;;5032109;28;20049;-73
2023/07/05 06:00:51;;;;;;;6.70;3.20;;;15.00;99.90;;;;;;5031856;28;20044;-74
2023/07/05 06:03:17;;;;;;;5.47;3.05;;;15.00;99.90;;;;;;5031854;28;20506;-73
2023/07/05 06:05:42;;;;;;;7.82;3.60;;;15.00;99.90;;;;;;5032055;28;20056;-73
2023/07/05 06:08:08;;;;;;;7.25;3.40;;;15.00;99.90;;;;;;5031986;28;20037;-73
2023/07/05 06:10:34;;;;;;;6.78;3.88;;;15.10;99.90;;;;;;5031695;28;20041;-73
2023/07/05 06:13:00;;;;;;;7.60;3.58;;;15.10;99.90;;;;;;5031816;28;20037;-73
2023/07/05 06:15:26;;;;;;;7.95;3.70;;;15.10;99.90;;;;;;5032052;28;20397;-73
2023/07/05 06:17:53;;;;;;;6.68;3.83;;;15.10;99.90;;;;;;5031785;28;20041;-72
2023/07/05 06:20:18;;;;;;;6.05;3.20;;;15.20;99.90;;;;;;5031776;28;20040;-72
2023/07/05 06:22:44;;;;;;;8.32;3.65;;;15.20;99.90;;;;;;5033052;28;20041;-73
2023/07/05 06:25:10;;;;;;;6.82;3.70;;;15.30;99.90;;;;;;5035795;28;20068;-73
2023/07/05 06:27:36;;;;;;;6.35;3.42;;;15.40;99.90;;;;;;5035596;28;20037;-73
2023/07/05 06:30:03;;;;;;;6.18;3.42;;;15.50;99.90;;;;;;5035606;28;20051;-72
2023/07/05 06:32:29;;;;;;;8.43;3.83;;;15.60;99.90;;;;;;5035520;28;20041;-71
2023/07/05 06:34:55;;;;;;;5.22;3.38;;;15.60;99.90;;;;;;5035590;28;20494;-73
2023/07/05 06:37:20;;;;;;;6.85;3.95;;;15.60;99.90;;;;;;5035677;28;20120;-72
2023/07/05 06:39:46;;;;;;;5.10;3.35;;;15.60;99.90;;;;;;5035709;28;20045;-73
2023/07/05 06:42:11;;;;;;;7.75;3.70;;;15.60;99.90;;;;;;5035370;28;20521;-73
2023/07/05 06:44:37;;;;;;;5.70;3.22;;;15.60;99.90;;;;;;5035359;28;20045;-73
2023/07/05 06:47:03;;;;;;;5.53;3.30;;;15.50;99.90;;;;;;5035256;28;20049;-73
2023/07/05 06:49:28;;;;;;;6.25;2.95;;;15.50;99.90;;;;;;5035258;28;20041;-73
2023/07/05 06:51:54;;;;;;;11.68;4.05;;;15.50;99.90;;;;;;5018739;28;20044;-73
2023/07/05 06:54:20;;;;;;;6.97;3.75;;;15.50;99.90;;;;;;5035156;28;20456;-73
2023/07/05 06:56:46;;;;;;;7.22;3.47;;;15.40;99.90;;;;;;5035221;28;20044;-74
2023/07/05 06:59:12;;;;;;;5.40;3.50;;;15.40;99.90;;;;;;5035080;28;20045;-73
2023/07/05 07:01:37;;;;;;;7.75;3.83;;;15.40;99.90;;;;;;5035295;28;20045;-73
2023/07/05 07:04:05;;;;;;;6.18;3.60;;;15.40;99.90;;;;;;5018552;28;20081;-72
2023/07/05 07:06:31;;;;;;;7.15;3.45;;;15.40;99.90;;;;;;5034936;28;20076;-73
2023/07/05 07:08:58;;;;;;;5.10;2.95;;;15.40;99.90;;;;;;5018410;28;20498;-73
2023/07/05 07:11:24;;;;;;;4.88;2.70;;;15.40;99.90;;;;;;5018323;28;20045;-72
2023/07/05 07:13:49;;;;;;;4.88;2.90;;;15.50;99.90;;;;;;5035095;28;20107;-73
2023/07/05 07:16:16;;;;;;;7.72;3.42;;;15.50;99.90;;;;;;5035025;28;20029;-73
2023/07/05 07:18:45;;;;;;;7.88;3.28;;;15.60;99.90;;;;;;5034594;28;20045;-73
2023/07/05 07:21:12;;;;;;;5.30;3.20;;;15.70;99.90;;;;;;5018133;28;20048;-73
2023/07/05 07:23:38;;;;;;;6.68;3.15;;;15.60;99.90;;;;;;5034919;28;20045;-73
2023/07/05 07:26:10;;;;;;;4.45;2.38;;;15.60;99.90;;;;;;5034618;28;20494;-73
2023/07/05 07:28:36;;;;;;;8.53;2.97;;;15.50;99.90;;;;;;5034572;28;20045;-73
2023/07/05 07:31:22;;;;;;;5.63;3.00;;;15.40;99.90;;;;;;5034530;28;20307;-73
2023/07/05 07:33:48;;;;;;;5.05;3.13;;;15.30;99.90;;;;;;5034288;28;20041;-73
2023/07/05 07:36:16;;;;;;;6.95;3.08;;;15.20;99.90;;;;;;5034494;28;20046;-73
2023/07/05 07:38:43;;;;;;;6.65;2.92;;;15.20;99.90;;;;;;5034343;28;20453;-74
2023/07/05 07:41:40;;;;;;;4.60;2.65;;;15.00;99.90;;;;;;5035111;28;20390;-73
2023/07/05 07:44:08;;;;;;;5.07;1.90;;;14.90;99.90;;;;;;5034369;28;20052;-73
2023/07/05 07:46:35;;;;;;;5.68;1.60;;;14.70;99.90;;;;;;5034181;28;20091;-74
2023/07/05 07:49:03;;;;;;;8.80;1.50;;;14.50;99.90;;;;;;5034575;28;20111;-73
2023/07/05 07:51:34;;;;;;;3.42;1.08;;;14.20;99.90;;;;;;5017716;28;20044;-73
2023/07/05 07:54:00;;;;;;;6.38;1.05;;;14.00;99.90;;;;;;5034378;28;20080;-74
2023/07/05 07:56:26;;;;;;;5.10;0.65;;;13.80;99.90;;;;;;5033904;28;20041;-73
2023/07/05 07:58:54;;;;;;;3.13;1.10;;;13.70;99.90;;;;;;5034226;28;20063;-73
2023/07/05 08:01:32;;;;;;;2.35;1.08;;;13.50;99.90;;;;;;5034022;28;20077;-74
2023/07/05 08:04:01;;;;;;;3.50;1.20;;;13.50;99.90;;;;;;5033943;28;20378;-74
2023/07/05 08:06:36;;;;;;;3.75;1.00;;;13.40;99.90;;;;;;5034082;28;20052;-74
2023/07/05 08:09:02;;;;;;;1.52;0.77;;;13.40;99.90;;;;;;5033924;28;20498;-74
2023/07/05 08:11:29;;;;;;;1.50;0.80;;;13.30;99.90;;;;;;5033743;28;20084;-73
2023/07/05 08:13:54;;;;;;;2.03;0.80;;;13.30;99.90;;;;;;5033983;28;20041;-73
2023/07/05 08:16:21;;;;;;;1.80;0.80;;;13.20;99.90;;;;;;5033700;28;20387;-74
2023/07/05 08:18:46;;;;;;;1.58;0.50;;;13.20;99.90;;;;;;5017112;28;20117;-73
2023/07/05 08:21:14;;;;;;;3.42;0.90;;;13.20;99.90;;;;;;5033608;28;20076;-73
2023/07/05 08:23:41;;;;;;;4.00;0.98;;;13.10;99.90;;;;;;5033794;28;20049;-73
2023/07/05 08:26:07;;;;;;;0.90;0.40;;;13.10;99.90;;;;;;5033518;28;20073;-73
2023/07/05 08:28:32;;;;;;;2.92;0.60;;;13.10;99.90;;;;;;5033399;28;20100;-74
2023/07/05 08:31:00;;;;;;;3.78;0.70;;;13.10;99.90;;;;;;5033348;28;20064;-73
2023/07/05 08:33:28;;;;;;;3.75;0.70;;;13.10;99.90;;;;;;5033340;28;20041;-73
2023/07/05 08:36:12;;;;;;;2.70;0.70;;;13.10;99.90;;;;;;5033597;28;20049;-73
2023/07/05 08:38:42;;;;;;;1.42;0.60;;;13.10;99.90;;;;;;5016647;28;20383;-74
2023/07/05 08:41:33;;;;;;;4.78;0.70;;;13.00;99.90;;;;;;5016943;28;20106;-73
2023/07/05 08:44:26;;;;;;;3.72;0.90;;;13.00;99.90;;;;;;5033399;28;20115;-73
2023/07/05 08:47:01;;;;;;;;;;;13.00;99.90;;;;;;5032550;28;20041;-73
2023/07/05 08:49:32;;;;;;;2.58;0.68;;;12.80;99.90;;;;;;5033307;28;20372;-74
2023/07/05 08:52:00;;;;;;;3.50;0.90;;;12.80;99.90;;;;;;5033061;28;20041;-74
2023/07/05 08:54:31;;;;;;;4.95;1.20;;;12.80;99.90;;;;;;5033206;28;20034;-73
2023/07/05 08:57:07;;;;;;;3.67;0.88;;;12.70;99.90;;;;;;5032729;28;20044;-74
2023/07/05 08:59:44;;;;;;;2.28;0.88;;;12.70;99.90;;;;;;5032894;28;20557;-74
2023/07/05 09:02:11;;;;;;;3.03;0.95;;;12.60;99.90;;;;;;5032828;28;20421;-74
2023/07/05 09:04:36;;;;;;;2.92;1.08;;;12.60;99.90;;;;;;5032766;28;20091;-74
2023/07/05 09:07:20;;;;;;;4.78;1.45;;;12.50;99.90;;;;;;5091532;28;20444;-73
2023/07/05 09:10:07;;;;;;;3.83;1.30;;;12.50;99.90;;;;;;5089466;28;20044;-73
2023/07/05 09:13:00;;;;;;;4.57;1.67;;;12.60;99.90;;;;;;5089618;28;20045;-74
2023/07/05 09:15:34;;;;;;;7.57;1.48;;;12.50;99.90;;;;;;5089359;28;20048;-73
2023/07/05 09:18:27;;;;;;;3.15;1.13;;;12.50;99.90;;;;;;5089445;28;20063;-73
2023/07/05 09:21:14;;;;;;;;;;;12.50;99.90;;;;;;5089663;28;20097;-74
2023/07/05 09:23:53;;;;;;;8.30;1.73;;;12.50;99.90;;;;;;5072359;28;19916;-74
2023/07/05 09:26:41;;;;;;;5.93;1.58;;;12.60;99.90;;;;;;5089020;28;20386;-74
2023/07/05 09:29:25;;;;;;;9.15;2.00;;;12.60;99.90;;;;;;5089073;28;20042;-73
2023/07/05 09:31:51;;;;;;;8.05;2.22;;;12.60;99.90;;;;;;5089276;28;20044;-73
2023/07/05 09:34:20;;;;;;;8.52;2.38;;;12.60;99.90;;;;;;5088925;28;20460;-74
2023/07/05 09:36:47;;;;;;;9.70;2.60;;;12.70;99.90;;;;;;5088819;28;20040;-74
2023/07/05 09:39:25;;;;;;;7.55;2.03;;;12.80;99.90;;;;;;5072241;28;20080;-74
2023/07/05 09:41:53;;;;;;;11.93;2.70;;;12.80;99.90;;;;;;5088816;28;20079;-73
2023/07/05 09:44:20;;;;;;;10.90;2.40;;;12.80;99.90;;;;;;5088728;28;20040;-75
2023/07/05 09:46:46;;;;;;;9.40;2.17;;;12.90;99.90;;;;;;5071683;28;20051;-73
2023/07/05 09:49:16;;;;;;;8.95;2.15;;;13.10;99.90;;;;;;5088731;28;20388;-73
2023/07/05 09:51:46;;;;;;;9.75;2.22;;;13.20;99.90;;;;;;5088628;28;20066;-72
2023/07/05 09:54:20;;;;;;;8.18;1.80;;;13.30;99.90;;;;;;5088545;28;20059;-72
2023/07/05 09:57:01;;;;;;;8.68;2.00;;;13.40;99.90;;;;;;5088786;28;20076;-72
2023/07/05 09:59:27;;;;;;;12.25;2.60;;;13.70;99.90;;;;;;5088633;28;20046;-74
2023/07/05 10:02:01;;;;;;;10.57;2.10;;;13.80;99.90;;;;;;5088435;28;20048;-71
2023/07/05 10:04:27;;;;;;;9.20;2.10;;;14.10;99.90;;;;;;5089216;28;20542;-71
2023/07/05 10:06:54;;;;;;;9.65;1.98;;;14.30;99.90;;;;;;5088056;28;20048;-71
2023/07/05 10:09:22;;;;;;;10.05;2.85;;;14.70;99.90;;;;;;5088257;28;20040;-71
2023/07/05 10:11:54;;;;;;;13.35;2.85;;;14.90;99.90;;;;;;5088534;28;20138;-71
2023/07/05 10:14:27;;;;;;;15.85;3.22;;;14.90;99.90;;;;;;5088185;28;20048;-71
2023/07/05 10:17:06;;;;;;;14.15;2.63;;;14.80;99.90;;;;;;5084029;28;20116;-71
2023/07/05 10:19:38;;;;;;;12.95;3.08;;;14.70;99.90;;;;;;5074599;28;20462;-71
2023/07/05 10:22:15;;;;;;;12.60;3.00;;;14.60;99.90;;;;;;5074880;28;20044;-71
2023/07/05 10:24:45;;;;;;;12.98;2.88;;;14.50;99.90;;;;;;5074565;28;20055;-71
2023/07/05 10:27:28;;;;;;;13.32;3.25;;;14.70;99.90;;;;;;5074416;28;20048;-71
2023/07/05 10:30:01;;;;;;;13.75;2.80;;;15.10;99.90;;;;;;5074392;28;20044;-71
2023/07/05 10:32:28;;;;;;;11.93;2.65;;;15.40;99.90;;;;;;5074448;28;20094;-71
2023/07/05 10:34:55;;;;;;;12.57;2.67;;;15.80;99.90;;;;;;5074771;28;20048;-71
2023/07/05 10:37:33;;;;;;;9.02;1.95;;;16.20;99.90;;;;;;5074178;28;20423;-71
2023/07/05 10:40:08;;;;;;;9.57;1.98;;;16.40;99.90;;;;;;5074506;28;20493;-71
2023/07/05 10:42:36;;;;;;;10.05;2.05;;;16.40;99.90;;;;;;5074277;28;20040;-71
2023/07/05 10:45:03;;;;;;;11.18;2.90;;;16.20;99.90;;;;;;5074237;28;20048;-71
2023/07/05 10:47:30;;;;;;;8.73;2.50;;;16.10;99.90;;;;;;5074012;28;20610;-71
2023/07/05 10:50:06;;;;;;;12.73;3.20;;;16.00;99.90;;;;;;5074024;28;20036;-71
2023/07/05 10:52:48;;;;;;;10.95;2.58;;;16.00;99.90;;;;;;5074052;28;20386;-71
2023/07/05 10:55:24;;;;;;;8.50;2.40;;;15.80;99.90;;;;;;5073975;28;20048;-71
2023/07/05 10:58:08;;;;;;;12.60;2.25;;;15.60;99.90;;;;;;5073832;28;20447;-71
2023/07/05 11:00:41;;;;;;;10.85;2.55;;;15.40;99.90;;;;;;5073871;28;20051;-71
2023/07/05 11:03:24;;;;;;;11.57;2.50;;;15.30;99.90;;;;;;5074093;28;20045;-71
2023/07/05 11:05:54;;;;;;;10.73;2.60;;;15.20;99.90;;;;;;5073775;28;20044;-71
2023/07/05 11:08:34;;;;;;;6.43;2.03;;;15.30;99.90;;;;;;5073868;28;20059;-71
2023/07/05 11:11:08;;;;;;;6.63;1.60;;;15.50;99.90;;;;;;5073973;28;20501;-71
2023/07/05 11:13:34;;;;;;;6.13;1.60;;;15.60;99.90;;;;;;5073902;28;20044;-71
2023/07/05 11:16:00;;;;;;;8.50;1.75;;;15.60;99.90;;;;;;5073499;28;20413;-71
2023/07/05 11:18:26;;;;;;;5.97;1.58;;;15.50;99.90;;;;;;5073698;28;20397;-71
2023/07/05 11:20:55;;;;;;;9.10;2.40;;;15.40;99.90;;;;;;5073444;28;20495;-71
2023/07/05 11:23:43;;;;;;;7.88;1.52;;;15.30;99.90;;;;;;5073351;28;20485;-71
2023/07/05 11:26:29;;;;;;;5.10;1.48;;;15.10;99.90;;;;;;5073306;28;20044;-71
2023/07/05 11:28:55;;;;;;;5.82;1.23;;;14.80;99.90;;;;;;5071828;28;20060;-71
2023/07/05 11:31:27;;;;;;;7.30;2.00;;;14.50;99.90;;;;;;5073519;28;20037;-71
2023/07/05 11:34:20;;;;;;;5.88;1.70;;;14.40;99.90;;;;;;5073218;28;20037;-71
2023/07/05 11:37:03;;;;;;;7.18;1.60;;;14.30;99.90;;;;;;5056380;28;20051;-71
2023/07/05 11:39:33;;;;;;;6.93;1.90;;;14.00;99.90;;;;;;5073237;28;20521;-71
2023/07/05 11:42:17;;;;;;;6.40;2.13;;;13.80;99.90;;;;;;5073153;28;20553;-71
2023/07/05 11:44:46;;;;;;;6.30;1.60;;;13.70;99.90;;;;;;5073025;28;20409;-69
2023/07/05 11:47:23;;;;;;;7.80;1.50;;;13.60;99.90;;;;;;5073470;28;20155;-70
2023/07/05 11:49:55;;;;;;;6.72;1.70;;;13.40;99.90;;;;;;5072967;28;20045;-70
2023/07/05 11:52:26;;;;;;;7.85;1.52;;;13.40;99.90;;;;;;5073341;28;20109;-70
2023/07/05 11:55:17;;;;;;;6.28;1.40;;;13.40;99.90;;;;;;5073053;28;20040;-70
2023/07/05 11:58:05;;;;;;;8.38;1.50;;;13.30;99.90;;;;;;5072942;28;20040;-71
2023/07/05 12:00:37;;;;;;;7.07;1.88;;;13.20;99.90;;;;;;5074322;28;20095;-70
2023/07/05 12:03:24;;;;;;;7.43;1.80;;;13.20;99.90;;;;;;5072980;28;20039;-70
2023/07/05 12:06:04;;;;;;;7.97;1.55;;;13.20;99.90;;;;;;5072576;28;20120;-70
2023/07/05 12:08:37;;;;;;;4.28;1.33;;;13.20;99.90;;;;;;5072518;28;20408;-70
2023/07/05 12:11:03;;;;;;;5.50;1.70;;;13.20;99.90;;;;;;5072498;28;20036;-70
2023/07/05 12:13:33;;;;;;;5.63;1.40;;;13.20;99.90;;;;;;5072452;28;20074;-73
2023/07/05 12:16:01;;;;;;;8.20;2.20;;;13.20;99.90;;;;;;5072654;28;20607;-75
2023/07/05 12:18:29;;;;;;;8.43;2.10;;;13.20;99.90;;;;;;5072206;28;20052;-70
2023/07/05 12:20:58;;;;;;;6.00;1.70;;;13.30;99.90;;;;;;5072288;28;20467;-70
2023/07/05 12:23:28;;;;;;;5.43;1.42;;;13.30;99.90;;;;;;5072515;28;20119;-68
2023/07/05 12:25:58;;;;;;;6.70;1.50;;;13.30;99.90;;;;;;5073983;28;20040;-68
2023/07/05 12:28:28;;;;;;;7.03;1.70;;;13.40;99.90;;;;;;5072410;28;20435;-68
2023/07/05 12:31:25;;;;;;;10.05;2.40;;;13.40;99.90;;;;;;5072378;28;20040;-68
2023/07/05 12:33:53;;;;;;;9.13;1.73;;;13.50;99.90;;;;;;5034694;28;20172;-68
2023/07/05 12:36:20;;;;;;;7.43;2.05;;;13.50;99.90;;;;;;5034593;28;20549;-68
2023/07/05 12:38:48;;;;;;;8.65;2.05;;;13.60;99.90;;;;;;5034668;28;20061;-68
2023/07/05 12:41:24;;;;;;;10.20;1.83;;;13.60;99.90;;;;;;5034274;28;20408;-68
2023/07/05 12:44:00;;;;;;;13.73;2.47;;;13.70;99.90;;;;;;5034483;28;20110;-68
2023/07/05 12:46:28;;;;;;;8.65;2.13;;;13.70;99.90;;;;;;5017750;28;20413;-68
2023/07/05 12:48:55;;;;;;;11.38;2.33;;;13.80;99.90;;;;;;5051681;28;20040;-68
2023/07/05 12:51:26;;;;;;;10.02;2.60;;;13.80;99.90;;;;;;5034365;28;20090;-68
2023/07/05 12:53:59;;;;;;;8.90;2.08;;;13.90;99.90;;;;;;5034658;28;20041;-68
2023/07/05 12:56:36;;;;;;;10.32;2.40;;;14.00;99.90;;;;;;5034251;28;20061;-69